Station Historical Data
Daily Summary for March 31, 2017 Units:  Both    English   Metric
« Previous Day
Next Day »
Daily Weekly Monthly Yearly Custom
  High: Low: Average:
Temperature: 47.8 °F /  8.8 °C 37.6 °F /  3.1 °C 42.5 °F /  5.8 °C
Dew Point: 45.3 °F /  7.4 °C 34.5 °F /  1.4 °C 40.2 °F /  4.6 °C
Humidity: 93% 88% 92%
Wind Speed: 9.0mph /  14.5km/h - 3.1mph /  5km/h
Wind Gust: 18.0mph /  29km/h - -
Wind- - ENE
Pressure: 29.91 in /  1012.8 hPa 29.66 in /  1004.3 hPa -
Precipitation: 0.83 in /  21.08 mm    
Historical Graphs
 
 
Tabular Data for March 31, 2017
Time Temperature Dew Point Pressure Wind Wind Speed Wind Gust Humidity Rainfall Rate (Hourly)
00:00 37.7 °F /  3.2 °C 34.5 °F /  1.4 °C 29.85in /  1010.7hPa East 7.0mph /  11.3km/h 18.0mph /  29km/h 88% 0.00in /  0mm
00:05 37.8 °F /  3.2 °C 34.6 °F /  1.4 °C 29.86in /  1011.1hPa East 7.0mph /  11.3km/h 16.0mph /  25.7km/h 88% 0.00in /  0mm
00:10 37.8 °F /  3.2 °C 34.6 °F /  1.4 °C 29.87in /  1011.4hPa East 6.0mph /  9.7km/h 16.0mph /  25.7km/h 88% 0.00in /  0mm
00:15 37.9 °F /  3.3 °C 34.7 °F /  1.5 °C 29.87in /  1011.4hPa ENE 6.0mph /  9.7km/h 16.0mph /  25.7km/h 88% 0.00in /  0mm
00:20 38.0 °F /  3.3 °C 34.8 °F /  1.6 °C 29.86in /  1011.1hPa East 9.0mph /  14.5km/h 12.0mph /  19.3km/h 88% 0.00in /  0mm
00:25 38.0 °F /  3.3 °C 34.8 °F /  1.6 °C 29.86in /  1011.1hPa ESE 5.0mph /  8km/h 10.0mph /  16.1km/h 88% 0.00in /  0mm
00:30 38.0 °F /  3.3 °C 34.8 °F /  1.6 °C 29.86in /  1011.1hPa ENE 2.0mph /  3.2km/h 14.0mph /  22.5km/h 88% 0.00in /  0mm
00:35 38.1 °F /  3.4 °C 34.9 °F /  1.6 °C 29.88in /  1011.7hPa ENE 2.0mph /  3.2km/h 11.0mph /  17.7km/h 88% 0.01in /  0.25mm
00:40 38.1 °F /  3.4 °C 34.9 °F /  1.6 °C 29.89in /  1012.1hPa NE 3.0mph /  4.8km/h 8.0mph /  12.9km/h 88% 0.01in /  0.25mm
00:45 38.2 °F /  3.4 °C 35.0 °F /  1.7 °C 29.91in /  1012.8hPa NE 2.0mph /  3.2km/h 9.0mph /  14.5km/h 88% 0.01in /  0.25mm
00:50 38.2 °F /  3.4 °C 35.0 °F /  1.7 °C 29.91in /  1012.8hPa NE 3.0mph /  4.8km/h 3.0mph /  4.8km/h 88% 0.02in /  0.51mm
00:55 38.2 °F /  3.4 °C 35.0 °F /  1.7 °C 29.90in /  1012.4hPa NE 3.0mph /  4.8km/h 5.0mph /  8km/h 88% 0.03in /  0.76mm
01:00 38.2 °F /  3.4 °C 35.0 °F /  1.7 °C 29.89in /  1012.1hPa NE 4.0mph /  6.4km/h 8.0mph /  12.9km/h 88% 0.03in /  0.76mm
01:05 38.1 °F /  3.4 °C 35.1 °F /  1.7 °C 29.90in /  1012.4hPa NE 4.0mph /  6.4km/h 9.0mph /  14.5km/h 89% 0.05in /  1.27mm
01:10 38.0 °F /  3.3 °C 35.0 °F /  1.7 °C 29.89in /  1012.1hPa NNE 3.0mph /  4.8km/h 9.0mph /  14.5km/h 89% 0.06in /  1.52mm
01:15 38.0 °F /  3.3 °C 35.0 °F /  1.7 °C 29.89in /  1012.1hPa NNE 3.0mph /  4.8km/h 7.0mph /  11.3km/h 89% 0.07in /  1.78mm
01:20 37.9 °F /  3.3 °C 34.9 °F /  1.6 °C 29.89in /  1012.1hPa NNE 4.0mph /  6.4km/h 7.0mph /  11.3km/h 89% 0.07in /  1.78mm
01:25 37.9 °F /  3.3 °C 34.9 °F /  1.6 °C 29.89in /  1012.1hPa NNE 3.0mph /  4.8km/h 7.0mph /  11.3km/h 89% 0.07in /  1.78mm
01:30 37.8 °F /  3.2 °C 34.8 °F /  1.6 °C 29.90in /  1012.4hPa NNE 3.0mph /  4.8km/h 7.0mph /  11.3km/h 89% 0.07in /  1.78mm
01:35 37.8 °F /  3.2 °C 34.8 °F /  1.6 °C 29.89in /  1012.1hPa NE 7.0mph /  11.3km/h 8.0mph /  12.9km/h 89% 0.07in /  1.78mm
01:40 37.7 °F /  3.2 °C 35.0 °F /  1.7 °C 29.87in /  1011.4hPa NE 6.0mph /  9.7km/h 10.0mph /  16.1km/h 90% 0.07in /  1.78mm
01:45 37.7 °F /  3.2 °C 35.0 °F /  1.7 °C 29.87in /  1011.4hPa NE 5.0mph /  8km/h 12.0mph /  19.3km/h 90% 0.07in /  1.78mm
01:50 37.6 °F /  3.1 °C 34.9 °F /  1.6 °C 29.84in /  1010.4hPa NE 5.0mph /  8km/h 10.0mph /  16.1km/h 90% 0.06in /  1.52mm
01:55 37.6 °F /  3.1 °C 34.9 °F /  1.6 °C 29.84in /  1010.4hPa ESE 8.0mph /  12.9km/h 14.0mph /  22.5km/h 90% 0.05in /  1.27mm
02:00 37.7 °F /  3.2 °C 35.0 °F /  1.7 °C 29.84in /  1010.4hPa East 8.0mph /  12.9km/h 11.0mph /  17.7km/h 90% 0.05in /  1.27mm
02:05 37.7 °F /  3.2 °C 35.0 °F /  1.7 °C 29.83in /  1010hPa ENE 6.0mph /  9.7km/h 11.0mph /  17.7km/h 90% 0.04in /  1.02mm
02:10 37.7 °F /  3.2 °C 35.0 °F /  1.7 °C 29.83in /  1010hPa East 5.0mph /  8km/h 11.0mph /  17.7km/h 90% 0.03in /  0.76mm
02:15 37.7 °F /  3.2 °C 35.0 °F /  1.7 °C 29.81in /  1009.4hPa East 5.0mph /  8km/h 11.0mph /  17.7km/h 90% 0.02in /  0.51mm
02:20 37.8 °F /  3.2 °C 35.1 °F /  1.7 °C 29.81in /  1009.4hPa ENE 5.0mph /  8km/h 11.0mph /  17.7km/h 90% 0.02in /  0.51mm
02:25 37.9 °F /  3.3 °C 35.2 °F /  1.8 °C 29.81in /  1009.4hPa East 5.0mph /  8km/h 11.0mph /  17.7km/h 90% 0.02in /  0.51mm
02:30 38.0 °F /  3.3 °C 35.3 °F /  1.8 °C 29.82in /  1009.7hPa East 6.0mph /  9.7km/h 11.0mph /  17.7km/h 90% 0.01in /  0.25mm
02:35 38.0 °F /  3.3 °C 35.3 °F /  1.8 °C 29.82in /  1009.7hPa ENE 5.0mph /  8km/h 11.0mph /  17.7km/h 90% 0.01in /  0.25mm
02:40 38.1 °F /  3.4 °C 35.4 °F /  1.9 °C 29.82in /  1009.7hPa ENE 4.0mph /  6.4km/h 11.0mph /  17.7km/h 90% 0.01in /  0.25mm
02:45 38.2 °F /  3.4 °C 35.2 °F /  1.8 °C 29.83in /  1010hPa ENE 5.0mph /  8km/h 6.0mph /  9.7km/h 89% 0.01in /  0.25mm
02:50 38.3 °F /  3.5 °C 35.3 °F /  1.8 °C 29.83in /  1010hPa ENE 1.0mph /  1.6km/h 9.0mph /  14.5km/h 89% 0.01in /  0.25mm
02:55 38.4 °F /  3.6 °C 35.4 °F /  1.9 °C 29.82in /  1009.7hPa ENE 1.0mph /  1.6km/h 7.0mph /  11.3km/h 89% 0.01in /  0.25mm
03:00 38.5 °F /  3.6 °C 35.5 °F /  1.9 °C 29.82in /  1009.7hPa East 2.0mph /  3.2km/h 9.0mph /  14.5km/h 89% 0.01in /  0.25mm
03:05 38.5 °F /  3.6 °C 35.5 °F /  1.9 °C 29.82in /  1009.7hPa NE 6.0mph /  9.7km/h 7.0mph /  11.3km/h 89% 0.00in /  0mm
03:10 38.6 °F /  3.7 °C 35.6 °F /  2 °C 29.81in /  1009.4hPa ENE 4.0mph /  6.4km/h 10.0mph /  16.1km/h 89% 0.00in /  0mm
03:15 38.6 °F /  3.7 °C 35.6 °F /  2 °C 29.81in /  1009.4hPa ENE 4.0mph /  6.4km/h 10.0mph /  16.1km/h 89% 0.00in /  0mm
03:20 38.6 °F /  3.7 °C 35.4 °F /  1.9 °C 29.81in /  1009.4hPa ENE 4.0mph /  6.4km/h 10.0mph /  16.1km/h 88% 0.00in /  0mm
03:25 38.7 °F /  3.7 °C 35.7 °F /  2.1 °C 29.80in /  1009hPa ENE 4.0mph /  6.4km/h 9.0mph /  14.5km/h 89% 0.00in /  0mm
03:30 38.8 °F /  3.8 °C 35.6 °F /  2 °C 29.80in /  1009hPa ENE 3.0mph /  4.8km/h 9.0mph /  14.5km/h 88% 0.00in /  0mm
03:40 38.9 °F /  3.8 °C 35.6 °F /  2 °C 29.80in /  1009hPa NNE 2.0mph /  3.2km/h 9.0mph /  14.5km/h 88% 0.00in /  0mm
03:45 39.0 °F /  3.9 °C 35.7 °F /  2.1 °C 29.80in /  1009hPa ENE 3.0mph /  4.8km/h 8.0mph /  12.9km/h 88% 0.00in /  0mm
03:50 39.0 °F /  3.9 °C 35.7 °F /  2.1 °C 29.80in /  1009hPa NE 5.0mph /  8km/h 9.0mph /  14.5km/h 88% 0.00in /  0mm
03:55 39.0 °F /  3.9 °C 35.7 °F /  2.1 °C 29.80in /  1009hPa NE 4.0mph /  6.4km/h 7.0mph /  11.3km/h 88% 0.01in /  0.25mm
04:00 39.1 °F /  3.9 °C 35.8 °F /  2.1 °C 29.81in /  1009.4hPa ENE 2.0mph /  3.2km/h 7.0mph /  11.3km/h 88% 0.02in /  0.51mm
04:05 39.0 °F /  3.9 °C 35.7 °F /  2.1 °C 29.81in /  1009.4hPa NE 1.0mph /  1.6km/h 5.0mph /  8km/h 88% 0.02in /  0.51mm
04:10 38.9 °F /  3.8 °C 35.9 °F /  2.2 °C 29.80in /  1009hPa NE 2.0mph /  3.2km/h 8.0mph /  12.9km/h 89% 0.04in /  1.02mm
04:15 38.9 °F /  3.8 °C 35.9 °F /  2.2 °C 29.79in /  1008.7hPa ENE 3.0mph /  4.8km/h 8.0mph /  12.9km/h 89% 0.05in /  1.27mm
04:20 38.9 °F /  3.8 °C 35.9 °F /  2.2 °C 29.79in /  1008.7hPa ENE 3.0mph /  4.8km/h 8.0mph /  12.9km/h 89% 0.06in /  1.52mm
04:25 38.9 °F /  3.8 °C 35.9 °F /  2.2 °C 29.79in /  1008.7hPa ENE 3.0mph /  4.8km/h 8.0mph /  12.9km/h 89% 0.08in /  2.03mm
04:30 38.9 °F /  3.8 °C 36.2 °F /  2.3 °C 29.79in /  1008.7hPa ENE 3.0mph /  4.8km/h 6.0mph /  9.7km/h 90% 0.13in /  3.3mm
04:35 38.8 °F /  3.8 °C 36.1 °F /  2.3 °C 29.78in /  1008.4hPa East 2.0mph /  3.2km/h 8.0mph /  12.9km/h 90% 0.16in /  4.06mm
04:40 38.8 °F /  3.8 °C 36.1 °F /  2.3 °C 29.78in /  1008.4hPa East 2.0mph /  3.2km/h 7.0mph /  11.3km/h 90% 0.17in /  4.32mm
04:45 38.8 °F /  3.8 °C 36.1 °F /  2.3 °C 29.77in /  1008hPa East 3.0mph /  4.8km/h 7.0mph /  11.3km/h 90% 0.19in /  4.83mm
04:50 38.8 °F /  3.8 °C 36.1 °F /  2.3 °C 29.77in /  1008hPa ENE 4.0mph /  6.4km/h 9.0mph /  14.5km/h 90% 0.20in /  5.08mm
04:55 38.8 °F /  3.8 °C 36.1 °F /  2.3 °C 29.77in /  1008hPa East 4.0mph /  6.4km/h 9.0mph /  14.5km/h 90% 0.21in /  5.33mm
05:00 38.8 °F /  3.8 °C 36.4 °F /  2.4 °C 29.76in /  1007.7hPa ENE 4.0mph /  6.4km/h 9.0mph /  14.5km/h 91% 0.21in /  5.33mm
05:05 38.8 °F /  3.8 °C 36.4 °F /  2.4 °C 29.76in /  1007.7hPa ENE 4.0mph /  6.4km/h 10.0mph /  16.1km/h 91% 0.23in /  5.84mm
05:10 38.9 °F /  3.8 °C 36.5 °F /  2.5 °C 29.75in /  1007.3hPa ENE 4.0mph /  6.4km/h 10.0mph /  16.1km/h 91% 0.22in /  5.59mm
05:15 39.0 °F /  3.9 °C 36.6 °F /  2.6 °C 29.75in /  1007.3hPa NE 4.0mph /  6.4km/h 7.0mph /  11.3km/h 91% 0.21in /  5.33mm
05:20 39.1 °F /  3.9 °C 36.7 °F /  2.6 °C 29.75in /  1007.3hPa East 7.0mph /  11.3km/h 8.0mph /  12.9km/h 91% 0.20in /  5.08mm
05:25 39.2 °F /  4 °C 36.8 °F /  2.7 °C 29.76in /  1007.7hPa NE 3.0mph /  4.8km/h 7.0mph /  11.3km/h 91% 0.18in /  4.57mm
05:30 39.4 °F /  4.1 °C 37.0 °F /  2.8 °C 29.76in /  1007.7hPa NE 2.0mph /  3.2km/h 5.0mph /  8km/h 91% 0.13in /  3.3mm
05:35 39.5 °F /  4.2 °C 37.4 °F /  3 °C 29.76in /  1007.7hPa NE 2.0mph /  3.2km/h 7.0mph /  11.3km/h 92% 0.10in /  2.54mm
05:40 39.5 °F /  4.2 °C 37.4 °F /  3 °C 29.75in /  1007.3hPa NE 3.0mph /  4.8km/h 6.0mph /  9.7km/h 92% 0.10in /  2.54mm
05:45 39.6 °F /  4.2 °C 37.5 °F /  3.1 °C 29.75in /  1007.3hPa NE 5.0mph /  8km/h 8.0mph /  12.9km/h 92% 0.08in /  2.03mm
05:50 39.6 °F /  4.2 °C 37.5 °F /  3.1 °C 29.75in /  1007.3hPa NE 4.0mph /  6.4km/h 10.0mph /  16.1km/h 92% 0.08in /  2.03mm
05:55 39.7 °F /  4.3 °C 37.6 °F /  3.1 °C 29.75in /  1007.3hPa NE 5.0mph /  8km/h 10.0mph /  16.1km/h 92% 0.06in /  1.52mm
06:00 39.7 °F /  4.3 °C 37.6 °F /  3.1 °C 29.75in /  1007.3hPa NE 5.0mph /  8km/h 9.0mph /  14.5km/h 92% 0.06in /  1.52mm
06:05 39.7 °F /  4.3 °C 37.6 °F /  3.1 °C 29.75in /  1007.3hPa NE 5.0mph /  8km/h 9.0mph /  14.5km/h 92% 0.06in /  1.52mm
06:10 39.6 °F /  4.2 °C 37.5 °F /  3.1 °C 29.75in /  1007.3hPa NE 5.0mph /  8km/h 10.0mph /  16.1km/h 92% 0.05in /  1.27mm
06:15 39.7 °F /  4.3 °C 37.6 °F /  3.1 °C 29.75in /  1007.3hPa NE 5.0mph /  8km/h 10.0mph /  16.1km/h 92% 0.06in /  1.52mm
06:20 39.7 °F /  4.3 °C 37.6 °F /  3.1 °C 29.75in /  1007.3hPa NE 4.0mph /  6.4km/h 9.0mph /  14.5km/h 92% 0.06in /  1.52mm
06:25 39.7 °F /  4.3 °C 37.6 °F /  3.1 °C 29.74in /  1007hPa NNE 2.0mph /  3.2km/h 9.0mph /  14.5km/h 92% 0.06in /  1.52mm
06:30 39.7 °F /  4.3 °C 37.6 °F /  3.1 °C 29.74in /  1007hPa NE 7.0mph /  11.3km/h 8.0mph /  12.9km/h 92% 0.06in /  1.52mm
06:35 39.8 °F /  4.3 °C 37.7 °F /  3.2 °C 29.74in /  1007hPa ENE 2.0mph /  3.2km/h 9.0mph /  14.5km/h 92% 0.06in /  1.52mm
06:40 39.8 °F /  4.3 °C 37.7 °F /  3.2 °C 29.75in /  1007.3hPa NE 6.0mph /  9.7km/h 10.0mph /  16.1km/h 92% 0.05in /  1.27mm
06:45 39.8 °F /  4.3 °C 37.7 °F /  3.2 °C 29.75in /  1007.3hPa NE 8.0mph /  12.9km/h 8.0mph /  12.9km/h 92% 0.06in /  1.52mm
06:50 39.9 °F /  4.4 °C 37.8 °F /  3.2 °C 29.75in /  1007.3hPa NE 1.0mph /  1.6km/h 9.0mph /  14.5km/h 92% 0.06in /  1.52mm
06:55 39.9 °F /  4.4 °C 37.8 °F /  3.2 °C 29.75in /  1007.3hPa NE 3.0mph /  4.8km/h 9.0mph /  14.5km/h 92% 0.06in /  1.52mm
07:00 39.9 °F /  4.4 °C 37.8 °F /  3.2 °C 29.75in /  1007.3hPa NE 2.0mph /  3.2km/h 5.0mph /  8km/h 92% 0.05in /  1.27mm
07:05 39.9 °F /  4.4 °C 37.8 °F /  3.2 °C 29.75in /  1007.3hPa NE 3.0mph /  4.8km/h 6.0mph /  9.7km/h 92% 0.06in /  1.52mm
07:10 40.0 °F /  4.4 °C 37.9 °F /  3.3 °C 29.75in /  1007.3hPa NE 2.0mph /  3.2km/h 6.0mph /  9.7km/h 92% 0.07in /  1.78mm
07:15 39.9 °F /  4.4 °C 37.8 °F /  3.2 °C 29.75in /  1007.3hPa NE 2.0mph /  3.2km/h 5.0mph /  8km/h 92% 0.07in /  1.78mm
07:20 40.0 °F /  4.4 °C 37.9 °F /  3.3 °C 29.75in /  1007.3hPa NE 2.0mph /  3.2km/h 4.0mph /  6.4km/h 92% 0.07in /  1.78mm
07:25 40.1 °F /  4.5 °C 38.0 °F /  3.3 °C 29.75in /  1007.3hPa NE 3.0mph /  4.8km/h 7.0mph /  11.3km/h 92% 0.07in /  1.78mm
07:30 40.0 °F /  4.4 °C 37.9 °F /  3.3 °C 29.74in /  1007hPa NE 2.0mph /  3.2km/h 6.0mph /  9.7km/h 92% 0.07in /  1.78mm
07:35 40.0 °F /  4.4 °C 38.1 °F /  3.4 °C 29.75in /  1007.3hPa NE 1.0mph /  1.6km/h 5.0mph /  8km/h 93% 0.07in /  1.78mm
07:40 40.0 °F /  4.4 °C 37.9 °F /  3.3 °C 29.74in /  1007hPa NE 1.0mph /  1.6km/h 5.0mph /  8km/h 92% 0.07in /  1.78mm
07:45 39.9 °F /  4.4 °C 38.0 °F /  3.3 °C 29.74in /  1007hPa North 2.0mph /  3.2km/h 7.0mph /  11.3km/h 93% 0.06in /  1.52mm
07:50 40.0 °F /  4.4 °C 37.9 °F /  3.3 °C 29.74in /  1007hPa NE 2.0mph /  3.2km/h 5.0mph /  8km/h 92% 0.05in /  1.27mm
07:55 40.0 °F /  4.4 °C 37.9 °F /  3.3 °C 29.74in /  1007hPa NNE 2.0mph /  3.2km/h 7.0mph /  11.3km/h 92% 0.05in /  1.27mm
08:00 40.0 °F /  4.4 °C 38.1 °F /  3.4 °C 29.74in /  1007hPa NNE 3.0mph /  4.8km/h 7.0mph /  11.3km/h 93% 0.05in /  1.27mm
08:05 40.0 °F /  4.4 °C 38.1 °F /  3.4 °C 29.74in /  1007hPa NNE 2.0mph /  3.2km/h 4.0mph /  6.4km/h 93% 0.02in /  0.51mm
08:10 40.0 °F /  4.4 °C 38.1 °F /  3.4 °C 29.74in /  1007hPa NE 3.0mph /  4.8km/h 7.0mph /  11.3km/h 93% 0.01in /  0.25mm
08:15 40.0 °F /  4.4 °C 38.1 °F /  3.4 °C 29.74in /  1007hPa NNE 3.0mph /  4.8km/h 7.0mph /  11.3km/h 93% 0.00in /  0mm
08:20 40.1 °F /  4.5 °C 38.2 °F /  3.4 °C 29.74in /  1007hPa NNE 3.0mph /  4.8km/h 7.0mph /  11.3km/h 93% 0.00in /  0mm
08:25 40.1 °F /  4.5 °C 38.2 °F /  3.4 °C 29.74in /  1007hPa NE 3.0mph /  4.8km/h 8.0mph /  12.9km/h 93% 0.00in /  0mm
08:30 40.3 °F /  4.6 °C 38.4 °F /  3.6 °C 29.74in /  1007hPa NE 5.0mph /  8km/h 5.0mph /  8km/h 93% 0.00in /  0mm
08:35 40.2 °F /  4.6 °C 38.3 °F /  3.5 °C 29.75in /  1007.3hPa NNE 2.0mph /  3.2km/h 5.0mph /  8km/h 93% 0.00in /  0mm
08:40 40.1 °F /  4.5 °C 38.2 °F /  3.4 °C 29.75in /  1007.3hPa NE 2.0mph /  3.2km/h 6.0mph /  9.7km/h 93% 0.00in /  0mm
08:45 40.1 °F /  4.5 °C 38.2 °F /  3.4 °C 29.75in /  1007.3hPa NE 6.0mph /  9.7km/h 6.0mph /  9.7km/h 93% 0.00in /  0mm
08:50 40.2 °F /  4.6 °C 38.3 °F /  3.5 °C 29.75in /  1007.3hPa NNE 3.0mph /  4.8km/h 6.0mph /  9.7km/h 93% 0.00in /  0mm
08:55 40.2 °F /  4.6 °C 38.3 °F /  3.5 °C 29.74in /  1007hPa NNE 1.0mph /  1.6km/h 4.0mph /  6.4km/h 93% 0.00in /  0mm
09:00 40.3 °F /  4.6 °C 38.4 °F /  3.6 °C 29.74in /  1007hPa NE 4.0mph /  6.4km/h 6.0mph /  9.7km/h 93% 0.00in /  0mm
09:05 40.3 °F /  4.6 °C 38.4 °F /  3.6 °C 29.74in /  1007hPa NE 3.0mph /  4.8km/h 9.0mph /  14.5km/h 93% 0.00in /  0mm
09:10 40.3 °F /  4.6 °C 38.4 °F /  3.6 °C 29.74in /  1007hPa NE 3.0mph /  4.8km/h 9.0mph /  14.5km/h 93% 0.01in /  0.25mm
09:15 40.3 °F /  4.6 °C 38.4 °F /  3.6 °C 29.74in /  1007hPa NE 3.0mph /  4.8km/h 6.0mph /  9.7km/h 93% 0.01in /  0.25mm
09:20 40.5 °F /  4.7 °C 38.6 °F /  3.7 °C 29.74in /  1007hPa NE 3.0mph /  4.8km/h 7.0mph /  11.3km/h 93% 0.01in /  0.25mm
09:25 40.6 °F /  4.8 °C 38.7 °F /  3.7 °C 29.74in /  1007hPa NE 3.0mph /  4.8km/h 7.0mph /  11.3km/h 93% 0.01in /  0.25mm
09:30 40.8 °F /  4.9 °C 38.9 °F /  3.8 °C 29.74in /  1007hPa NE 2.0mph /  3.2km/h 5.0mph /  8km/h 93% 0.01in /  0.25mm
09:35 40.9 °F /  4.9 °C 39.0 °F /  3.9 °C 29.74in /  1007hPa NNE 1.0mph /  1.6km/h 5.0mph /  8km/h 93% 0.01in /  0.25mm
09:40 41.1 °F /  5.1 °C 39.2 °F /  4 °C 29.74in /  1007hPa NNE 2.0mph /  3.2km/h 5.0mph /  8km/h 93% 0.01in /  0.25mm
09:45 41.3 °F /  5.2 °C 39.4 °F /  4.1 °C 29.74in /  1007hPa North 3.0mph /  4.8km/h 5.0mph /  8km/h 93% 0.01in /  0.25mm
09:55 41.7 °F /  5.4 °C 39.8 °F /  4.3 °C 29.73in /  1006.7hPa NE 4.0mph /  6.4km/h 8.0mph /  12.9km/h 93% 0.01in /  0.25mm
10:00 41.8 °F /  5.4 °C 39.9 °F /  4.4 °C 29.73in /  1006.7hPa NE 6.0mph /  9.7km/h 7.0mph /  11.3km/h 93% 0.01in /  0.25mm
10:05 42.2 °F /  5.7 °C 40.3 °F /  4.6 °C 29.73in /  1006.7hPa NE 1.0mph /  1.6km/h 7.0mph /  11.3km/h 93% 0.01in /  0.25mm
10:10 42.4 °F /  5.8 °C 40.5 °F /  4.7 °C 29.73in /  1006.7hPa NE 3.0mph /  4.8km/h 7.0mph /  11.3km/h 93% 0.00in /  0mm
10:15 42.7 °F /  5.9 °C 40.8 °F /  4.9 °C 29.73in /  1006.7hPa NE 3.0mph /  4.8km/h 7.0mph /  11.3km/h 93% 0.00in /  0mm
10:20 42.7 °F /  5.9 °C 40.8 °F /  4.9 °C 29.73in /  1006.7hPa NE 3.0mph /  4.8km/h 7.0mph /  11.3km/h 93% 0.00in /  0mm
10:25 43.0 °F /  6.1 °C 41.1 °F /  5.1 °C 29.73in /  1006.7hPa NE 3.0mph /  4.8km/h 7.0mph /  11.3km/h 93% 0.00in /  0mm
10:30 43.0 °F /  6.1 °C 41.1 °F /  5.1 °C 29.73in /  1006.7hPa NNE 5.0mph /  8km/h 7.0mph /  11.3km/h 93% 0.00in /  0mm
10:35 43.1 °F /  6.2 °C 41.2 °F /  5.1 °C 29.73in /  1006.7hPa NE 1.0mph /  1.6km/h 6.0mph /  9.7km/h 93% 0.00in /  0mm
10:40 43.0 °F /  6.1 °C 40.8 °F /  4.9 °C 29.73in /  1006.7hPa NE 3.0mph /  4.8km/h 7.0mph /  11.3km/h 92% 0.00in /  0mm
10:45 43.2 °F /  6.2 °C 41.3 °F /  5.2 °C 29.74in /  1007hPa NE 4.0mph /  6.4km/h 8.0mph /  12.9km/h 93% 0.00in /  0mm
10:50 43.5 °F /  6.4 °C 41.3 °F /  5.2 °C 29.74in /  1007hPa NE 4.0mph /  6.4km/h 6.0mph /  9.7km/h 92% 0.00in /  0mm
10:55 43.4 °F /  6.3 °C 41.2 °F /  5.1 °C 29.73in /  1006.7hPa NE 2.0mph /  3.2km/h 6.0mph /  9.7km/h 92% 0.00in /  0mm
11:00 43.6 °F /  6.4 °C 41.4 °F /  5.2 °C 29.73in /  1006.7hPa NE 3.0mph /  4.8km/h 5.0mph /  8km/h 92% 0.00in /  0mm
11:05 43.6 °F /  6.4 °C 41.4 °F /  5.2 °C 29.73in /  1006.7hPa NE 3.0mph /  4.8km/h 7.0mph /  11.3km/h 92% 0.00in /  0mm
11:10 43.6 °F /  6.4 °C 41.4 °F /  5.2 °C 29.73in /  1006.7hPa NE 4.0mph /  6.4km/h 6.0mph /  9.7km/h 92% 0.00in /  0mm
11:15 43.8 °F /  6.6 °C 41.6 °F /  5.3 °C 29.73in /  1006.7hPa NE 3.0mph /  4.8km/h 6.0mph /  9.7km/h 92% 0.00in /  0mm
11:20 43.9 °F /  6.6 °C 41.7 °F /  5.4 °C 29.72in /  1006.3hPa NE 3.0mph /  4.8km/h 8.0mph /  12.9km/h 92% 0.00in /  0mm
11:25 43.9 °F /  6.6 °C 41.7 °F /  5.4 °C 29.72in /  1006.3hPa NE 3.0mph /  4.8km/h 8.0mph /  12.9km/h 92% 0.00in /  0mm
11:30 44.1 °F /  6.7 °C 41.9 °F /  5.5 °C 29.72in /  1006.3hPa NE 3.0mph /  4.8km/h 7.0mph /  11.3km/h 92% 0.00in /  0mm
11:35 44.1 °F /  6.7 °C 41.9 °F /  5.5 °C 29.72in /  1006.3hPa NE 4.0mph /  6.4km/h 8.0mph /  12.9km/h 92% 0.00in /  0mm
11:40 44.3 °F /  6.8 °C 42.1 °F /  5.6 °C 29.72in /  1006.3hPa NE 4.0mph /  6.4km/h 8.0mph /  12.9km/h 92% 0.00in /  0mm
11:45 44.3 °F /  6.8 °C 42.1 °F /  5.6 °C 29.72in /  1006.3hPa NE 2.0mph /  3.2km/h 8.0mph /  12.9km/h 92% 0.00in /  0mm
11:50 44.6 °F /  7 °C 42.4 °F /  5.8 °C 29.72in /  1006.3hPa NE 1.0mph /  1.6km/h 8.0mph /  12.9km/h 92% 0.01in /  0.25mm
11:55 44.7 °F /  7.1 °C 42.5 °F /  5.8 °C 29.72in /  1006.3hPa ENE 4.0mph /  6.4km/h 9.0mph /  14.5km/h 92% 0.01in /  0.25mm
12:00 44.7 °F /  7.1 °C 42.5 °F /  5.8 °C 29.72in /  1006.3hPa ENE 7.0mph /  11.3km/h 9.0mph /  14.5km/h 92% 0.01in /  0.25mm
12:05 44.9 °F /  7.2 °C 42.7 °F /  5.9 °C 29.72in /  1006.3hPa NE 8.0mph /  12.9km/h 9.0mph /  14.5km/h 92% 0.01in /  0.25mm
12:10 45.2 °F /  7.3 °C 43.3 °F /  6.3 °C 29.71in /  1006hPa NNE 2.0mph /  3.2km/h 8.0mph /  12.9km/h 93% 0.01in /  0.25mm
12:15 45.0 °F /  7.2 °C 42.8 °F /  6 °C 29.71in /  1006hPa NE 3.0mph /  4.8km/h 9.0mph /  14.5km/h 92% 0.01in /  0.25mm
12:20 45.0 °F /  7.2 °C 42.8 °F /  6 °C 29.71in /  1006hPa NE 5.0mph /  8km/h 10.0mph /  16.1km/h 92% 0.01in /  0.25mm
12:25 45.4 °F /  7.4 °C 43.2 °F /  6.2 °C 29.71in /  1006hPa NE 4.0mph /  6.4km/h 10.0mph /  16.1km/h 92% 0.01in /  0.25mm
12:30 45.3 °F /  7.4 °C 43.1 °F /  6.2 °C 29.71in /  1006hPa NE 4.0mph /  6.4km/h 9.0mph /  14.5km/h 92% 0.01in /  0.25mm
12:35 45.2 °F /  7.3 °C 43.0 °F /  6.1 °C 29.71in /  1006hPa NE 5.0mph /  8km/h 9.0mph /  14.5km/h 92% 0.01in /  0.25mm
12:40 45.4 °F /  7.4 °C 43.2 °F /  6.2 °C 29.71in /  1006hPa NE 5.0mph /  8km/h 9.0mph /  14.5km/h 92% 0.01in /  0.25mm
12:45 45.4 °F /  7.4 °C 43.2 °F /  6.2 °C 29.71in /  1006hPa NE 4.0mph /  6.4km/h 9.0mph /  14.5km/h 92% 0.01in /  0.25mm
12:50 45.4 °F /  7.4 °C 43.2 °F /  6.2 °C 29.70in /  1005.6hPa NNE 4.0mph /  6.4km/h 7.0mph /  11.3km/h 92% 0.01in /  0.25mm
12:55 45.4 °F /  7.4 °C 43.2 °F /  6.2 °C 29.70in /  1005.6hPa ENE 5.0mph /  8km/h 9.0mph /  14.5km/h 92% 0.01in /  0.25mm
13:00 45.3 °F /  7.4 °C 43.1 °F /  6.2 °C 29.70in /  1005.6hPa ENE 4.0mph /  6.4km/h 11.0mph /  17.7km/h 92% 0.01in /  0.25mm
13:05 45.4 °F /  7.4 °C 43.2 °F /  6.2 °C 29.70in /  1005.6hPa NE 5.0mph /  8km/h 11.0mph /  17.7km/h 92% 0.01in /  0.25mm
13:10 45.4 °F /  7.4 °C 43.2 °F /  6.2 °C 29.70in /  1005.6hPa ENE 3.0mph /  4.8km/h 10.0mph /  16.1km/h 92% 0.01in /  0.25mm
13:15 45.6 °F /  7.6 °C 43.4 °F /  6.3 °C 29.69in /  1005.3hPa NE 5.0mph /  8km/h 7.0mph /  11.3km/h 92% 0.01in /  0.25mm
13:20 46.0 °F /  7.8 °C 43.8 °F /  6.6 °C 29.69in /  1005.3hPa ENE 3.0mph /  4.8km/h 9.0mph /  14.5km/h 92% 0.01in /  0.25mm
13:25 45.8 °F /  7.7 °C 43.6 °F /  6.4 °C 29.69in /  1005.3hPa NE 4.0mph /  6.4km/h 9.0mph /  14.5km/h 92% 0.01in /  0.25mm
13:30 45.9 °F /  7.7 °C 43.7 °F /  6.5 °C 29.69in /  1005.3hPa NE 5.0mph /  8km/h 9.0mph /  14.5km/h 92% 0.01in /  0.25mm
13:35 46.2 °F /  7.9 °C 44.0 °F /  6.7 °C 29.69in /  1005.3hPa NE 5.0mph /  8km/h 9.0mph /  14.5km/h 92% 0.01in /  0.25mm
13:40 46.2 °F /  7.9 °C 44.0 °F /  6.7 °C 29.69in /  1005.3hPa NE 4.0mph /  6.4km/h 8.0mph /  12.9km/h 92% 0.02in /  0.51mm
13:45 46.3 °F /  7.9 °C 44.1 °F /  6.7 °C 29.69in /  1005.3hPa NE 4.0mph /  6.4km/h 9.0mph /  14.5km/h 92% 0.02in /  0.51mm
13:50 46.5 °F /  8.1 °C 44.3 °F /  6.8 °C 29.69in /  1005.3hPa NE 4.0mph /  6.4km/h 9.0mph /  14.5km/h 92% 0.01in /  0.25mm
13:55 46.2 °F /  7.9 °C 44.0 °F /  6.7 °C 29.69in /  1005.3hPa NE 4.0mph /  6.4km/h 7.0mph /  11.3km/h 92% 0.01in /  0.25mm
14:05 46.1 °F /  7.8 °C 43.9 °F /  6.6 °C 29.69in /  1005.3hPa NE 3.0mph /  4.8km/h 5.0mph /  8km/h 92% 0.03in /  0.76mm
14:10 46.1 °F /  7.8 °C 43.9 °F /  6.6 °C 29.69in /  1005.3hPa Calm   3.0mph /  4.8km/h 92% 0.04in /  1.02mm
14:15 46.3 °F /  7.9 °C 44.4 °F /  6.9 °C 29.69in /  1005.3hPa NE 1.0mph /  1.6km/h 3.0mph /  4.8km/h 93% 0.05in /  1.27mm
14:20 46.3 °F /  7.9 °C 44.1 °F /  6.7 °C 29.69in /  1005.3hPa SE 1.0mph /  1.6km/h 6.0mph /  9.7km/h 92% 0.06in /  1.52mm
14:25 46.2 °F /  7.9 °C 44.0 °F /  6.7 °C 29.68in /  1005hPa SE 3.0mph /  4.8km/h 5.0mph /  8km/h 92% 0.06in /  1.52mm
14:30 46.4 °F /  8 °C 44.2 °F /  6.8 °C 29.68in /  1005hPa SE 2.0mph /  3.2km/h 6.0mph /  9.7km/h 92% 0.07in /  1.78mm
14:35 46.5 °F /  8.1 °C 44.0 °F /  6.7 °C 29.68in /  1005hPa SE 3.0mph /  4.8km/h 8.0mph /  12.9km/h 91% 0.08in /  2.03mm
14:40 46.7 °F /  8.2 °C 44.2 °F /  6.8 °C 29.68in /  1005hPa SE 3.0mph /  4.8km/h 8.0mph /  12.9km/h 91% 0.07in /  1.78mm
14:45 46.8 °F /  8.2 °C 44.3 °F /  6.8 °C 29.68in /  1005hPa SE 4.0mph /  6.4km/h 8.0mph /  12.9km/h 91% 0.07in /  1.78mm
14:50 46.9 °F /  8.3 °C 44.4 °F /  6.9 °C 29.68in /  1005hPa SE 3.0mph /  4.8km/h 8.0mph /  12.9km/h 91% 0.08in /  2.03mm
14:55 47.1 °F /  8.4 °C 44.6 °F /  7 °C 29.68in /  1005hPa Calm   6.0mph /  9.7km/h 91% 0.08in /  2.03mm
15:00 47.5 °F /  8.6 °C 45.3 °F /  7.4 °C 29.67in /  1004.6hPa Calm   3.0mph /  4.8km/h 92% 0.07in /  1.78mm
15:05 47.4 °F /  8.6 °C 44.9 °F /  7.2 °C 29.67in /  1004.6hPa ESE 1.0mph /  1.6km/h 4.0mph /  6.4km/h 91% 0.06in /  1.52mm
15:10 47.6 °F /  8.7 °C 45.1 °F /  7.3 °C 29.67in /  1004.6hPa Calm   3.0mph /  4.8km/h 91% 0.06in /  1.52mm
15:15 47.6 °F /  8.7 °C 45.1 °F /  7.3 °C 29.67in /  1004.6hPa ENE 1.0mph /  1.6km/h 5.0mph /  8km/h 91% 0.05in /  1.27mm
15:20 47.6 °F /  8.7 °C 44.8 °F /  7.1 °C 29.67in /  1004.6hPa ENE 3.0mph /  4.8km/h 4.0mph /  6.4km/h 90% 0.04in /  1.02mm
15:25 47.5 °F /  8.6 °C 44.7 °F /  7.1 °C 29.67in /  1004.6hPa ENE 2.0mph /  3.2km/h 7.0mph /  11.3km/h 90% 0.04in /  1.02mm
15:30 47.6 °F /  8.7 °C 44.8 °F /  7.1 °C 29.67in /  1004.6hPa NE 2.0mph /  3.2km/h 5.0mph /  8km/h 90% 0.04in /  1.02mm
15:35 47.8 °F /  8.8 °C 45.0 °F /  7.2 °C 29.67in /  1004.6hPa East 2.0mph /  3.2km/h 5.0mph /  8km/h 90% 0.03in /  0.76mm
15:40 47.8 °F /  8.8 °C 45.0 °F /  7.2 °C 29.67in /  1004.6hPa ENE 2.0mph /  3.2km/h 5.0mph /  8km/h 90% 0.03in /  0.76mm
15:45 47.8 °F /  8.8 °C 45.0 °F /  7.2 °C 29.67in /  1004.6hPa ENE 2.0mph /  3.2km/h 5.0mph /  8km/h 90% 0.03in /  0.76mm
15:50 47.5 °F /  8.6 °C 44.7 °F /  7.1 °C 29.67in /  1004.6hPa East 2.0mph /  3.2km/h 5.0mph /  8km/h 90% 0.02in /  0.51mm
15:55 47.5 °F /  8.6 °C 44.4 °F /  6.9 °C 29.67in /  1004.6hPa East 2.0mph /  3.2km/h 5.0mph /  8km/h 89% 0.02in /  0.51mm
16:00 47.5 °F /  8.6 °C 44.7 °F /  7.1 °C 29.67in /  1004.6hPa ENE 3.0mph /  4.8km/h 3.0mph /  4.8km/h 90% 0.02in /  0.51mm
16:05 47.3 °F /  8.5 °C 44.5 °F /  6.9 °C 29.67in /  1004.6hPa NE 3.0mph /  4.8km/h 4.0mph /  6.4km/h 90% 0.02in /  0.51mm
16:10 47.1 °F /  8.4 °C 44.3 °F /  6.8 °C 29.67in /  1004.6hPa NE 2.0mph /  3.2km/h 5.0mph /  8km/h 90% 0.01in /  0.25mm
16:15 47.0 °F /  8.3 °C 44.2 °F /  6.8 °C 29.67in /  1004.6hPa NE 2.0mph /  3.2km/h 8.0mph /  12.9km/h 90% 0.01in /  0.25mm
16:20 47.0 °F /  8.3 °C 44.5 °F /  6.9 °C 29.67in /  1004.6hPa ENE 3.0mph /  4.8km/h 5.0mph /  8km/h 91% 0.01in /  0.25mm
16:25 47.0 °F /  8.3 °C 44.5 °F /  6.9 °C 29.67in /  1004.6hPa East 2.0mph /  3.2km/h 5.0mph /  8km/h 91% 0.01in /  0.25mm
16:30 47.0 °F /  8.3 °C 44.5 °F /  6.9 °C 29.67in /  1004.6hPa ENE 1.0mph /  1.6km/h 4.0mph /  6.4km/h 91% 0.00in /  0mm
16:35 47.0 °F /  8.3 °C 44.5 °F /  6.9 °C 29.66in /  1004.3hPa East 2.0mph /  3.2km/h 6.0mph /  9.7km/h 91% 0.00in /  0mm
16:40 46.9 °F /  8.3 °C 44.4 °F /  6.9 °C 29.66in /  1004.3hPa East 2.0mph /  3.2km/h 6.0mph /  9.7km/h 91% 0.01in /  0.25mm
16:45 46.8 °F /  8.2 °C 44.3 °F /  6.8 °C 29.66in /  1004.3hPa East 2.0mph /  3.2km/h 7.0mph /  11.3km/h 91% 0.01in /  0.25mm
16:50 46.9 °F /  8.3 °C 44.7 °F /  7.1 °C 29.66in /  1004.3hPa East 3.0mph /  4.8km/h 7.0mph /  11.3km/h 92% 0.01in /  0.25mm
17:00 47.1 °F /  8.4 °C 44.9 °F /  7.2 °C 29.66in /  1004.3hPa East 2.0mph /  3.2km/h 6.0mph /  9.7km/h 92% 0.01in /  0.25mm
17:05 47.0 °F /  8.3 °C 44.8 °F /  7.1 °C 29.67in /  1004.6hPa SE 2.0mph /  3.2km/h 6.0mph /  9.7km/h 92% 0.01in /  0.25mm
17:10 46.7 °F /  8.2 °C 44.5 °F /  6.9 °C 29.66in /  1004.3hPa ESE 4.0mph /  6.4km/h 6.0mph /  9.7km/h 92% 0.01in /  0.25mm
17:15 46.7 °F /  8.2 °C 44.5 °F /  6.9 °C 29.66in /  1004.3hPa ESE 3.0mph /  4.8km/h 8.0mph /  12.9km/h 92% 0.01in /  0.25mm
17:20 46.6 °F /  8.1 °C 44.4 °F /  6.9 °C 29.66in /  1004.3hPa East 3.0mph /  4.8km/h 6.0mph /  9.7km/h 92% 0.01in /  0.25mm
17:25 46.5 °F /  8.1 °C 44.3 °F /  6.8 °C 29.66in /  1004.3hPa ESE 3.0mph /  4.8km/h 6.0mph /  9.7km/h 92% 0.01in /  0.25mm
17:30 46.5 °F /  8.1 °C 44.3 °F /  6.8 °C 29.66in /  1004.3hPa ESE 2.0mph /  3.2km/h 5.0mph /  8km/h 92% 0.01in /  0.25mm
17:35 46.5 °F /  8.1 °C 44.3 °F /  6.8 °C 29.66in /  1004.3hPa NE 3.0mph /  4.8km/h 5.0mph /  8km/h 92% 0.01in /  0.25mm
17:40 46.4 °F /  8 °C 44.2 °F /  6.8 °C 29.66in /  1004.3hPa ENE 3.0mph /  4.8km/h 8.0mph /  12.9km/h 92% 0.00in /  0mm
17:45 46.3 °F /  7.9 °C 44.1 °F /  6.7 °C 29.67in /  1004.6hPa ENE 2.0mph /  3.2km/h 8.0mph /  12.9km/h 92% 0.01in /  0.25mm
17:50 46.3 °F /  7.9 °C 44.1 °F /  6.7 °C 29.67in /  1004.6hPa ENE 2.0mph /  3.2km/h 5.0mph /  8km/h 92% 0.01in /  0.25mm
17:55 46.2 °F /  7.9 °C 44.0 °F /  6.7 °C 29.67in /  1004.6hPa ENE 3.0mph /  4.8km/h 7.0mph /  11.3km/h 92% 0.01in /  0.25mm
18:00 46.3 °F /  7.9 °C 44.1 °F /  6.7 °C 29.67in /  1004.6hPa ENE 2.0mph /  3.2km/h 7.0mph /  11.3km/h 92% 0.01in /  0.25mm
18:05 46.1 °F /  7.8 °C 43.9 °F /  6.6 °C 29.67in /  1004.6hPa East 2.0mph /  3.2km/h 7.0mph /  11.3km/h 92% 0.01in /  0.25mm
18:10 46.1 °F /  7.8 °C 43.9 °F /  6.6 °C 29.67in /  1004.6hPa East 2.0mph /  3.2km/h 7.0mph /  11.3km/h 92% 0.02in /  0.51mm
18:15 46.1 °F /  7.8 °C 43.9 °F /  6.6 °C 29.67in /  1004.6hPa ENE 3.0mph /  4.8km/h 6.0mph /  9.7km/h 92% 0.02in /  0.51mm
18:20 46.0 °F /  7.8 °C 43.8 °F /  6.6 °C 29.67in /  1004.6hPa East 2.0mph /  3.2km/h 5.0mph /  8km/h 92% 0.03in /  0.76mm
18:25 45.9 °F /  7.7 °C 43.7 °F /  6.5 °C 29.68in /  1005hPa ENE 3.0mph /  4.8km/h 5.0mph /  8km/h 92% 0.03in /  0.76mm
18:30 45.8 °F /  7.7 °C 43.6 °F /  6.4 °C 29.67in /  1004.6hPa Calm   5.0mph /  8km/h 92% 0.04in /  1.02mm
18:35 45.9 °F /  7.7 °C 43.7 °F /  6.5 °C 29.68in /  1005hPa East 3.0mph /  4.8km/h 3.0mph /  4.8km/h 92% 0.04in /  1.02mm
18:40 45.9 °F /  7.7 °C 43.7 °F /  6.5 °C 29.68in /  1005hPa Calm   5.0mph /  8km/h 92% 0.05in /  1.27mm
18:45 45.9 °F /  7.7 °C 43.7 °F /  6.5 °C 29.68in /  1005hPa ENE 1.0mph /  1.6km/h 5.0mph /  8km/h 92% 0.05in /  1.27mm
18:50 45.8 °F /  7.7 °C 43.6 °F /  6.4 °C 29.68in /  1005hPa East 1.0mph /  1.6km/h 5.0mph /  8km/h 92% 0.05in /  1.27mm
18:55 45.7 °F /  7.6 °C 43.5 °F /  6.4 °C 29.68in /  1005hPa East 1.0mph /  1.6km/h 5.0mph /  8km/h 92% 0.05in /  1.27mm
19:00 45.6 °F /  7.6 °C 43.4 °F /  6.3 °C 29.68in /  1005hPa East 1.0mph /  1.6km/h 5.0mph /  8km/h 92% 0.05in /  1.27mm
19:05 45.5 °F /  7.5 °C 43.3 °F /  6.3 °C 29.68in /  1005hPa East 2.0mph /  3.2km/h 6.0mph /  9.7km/h 92% 0.06in /  1.52mm
19:10 45.5 °F /  7.5 °C 43.3 °F /  6.3 °C 29.69in /  1005.3hPa East 2.0mph /  3.2km/h 6.0mph /  9.7km/h 92% 0.05in /  1.27mm
19:15 45.4 °F /  7.4 °C 43.2 °F /  6.2 °C 29.68in /  1005hPa Calm   2.0mph /  3.2km/h 92% 0.05in /  1.27mm
19:20 45.4 °F /  7.4 °C 43.2 °F /  6.2 °C 29.69in /  1005.3hPa Calm   5.0mph /  8km/h 92% 0.04in /  1.02mm
19:25 45.3 °F /  7.4 °C 43.1 °F /  6.2 °C 29.69in /  1005.3hPa ENE 1.0mph /  1.6km/h 5.0mph /  8km/h 92% 0.05in /  1.27mm
19:30 45.2 °F /  7.3 °C 43.3 °F /  6.3 °C 29.69in /  1005.3hPa ENE 1.0mph /  1.6km/h 3.0mph /  4.8km/h 93% 0.04in /  1.02mm
19:35 45.2 °F /  7.3 °C 43.3 °F /  6.3 °C 29.69in /  1005.3hPa Calm   4.0mph /  6.4km/h 93% 0.04in /  1.02mm
19:40 45.2 °F /  7.3 °C 43.3 °F /  6.3 °C 29.69in /  1005.3hPa ENE 1.0mph /  1.6km/h 3.0mph /  4.8km/h 93% 0.04in /  1.02mm
19:45 45.1 °F /  7.3 °C 43.2 °F /  6.2 °C 29.69in /  1005.3hPa Calm   1.0mph /  1.6km/h 93% 0.03in /  0.76mm
19:50 45.1 °F /  7.3 °C 43.2 °F /  6.2 °C 29.69in /  1005.3hPa Calm     93% 0.04in /  1.02mm
19:55 45.1 °F /  7.3 °C 43.2 °F /  6.2 °C 29.69in /  1005.3hPa ENE 1.0mph /  1.6km/h 3.0mph /  4.8km/h 93% 0.04in /  1.02mm
20:00 45.0 °F /  7.2 °C 43.1 °F /  6.2 °C 29.69in /  1005.3hPa ENE 1.0mph /  1.6km/h 3.0mph /  4.8km/h 93% 0.04in /  1.02mm
20:05 45.1 °F /  7.3 °C 43.2 °F /  6.2 °C 29.70in /  1005.6hPa ENE 1.0mph /  1.6km/h 3.0mph /  4.8km/h 93% 0.04in /  1.02mm
20:10 45.1 °F /  7.3 °C 43.2 °F /  6.2 °C 29.70in /  1005.6hPa ENE 2.0mph /  3.2km/h 3.0mph /  4.8km/h 93% 0.04in /  1.02mm
20:15 45.1 °F /  7.3 °C 43.2 °F /  6.2 °C 29.70in /  1005.6hPa ENE 2.0mph /  3.2km/h 4.0mph /  6.4km/h 93% 0.04in /  1.02mm
20:20 45.0 °F /  7.2 °C 43.1 °F /  6.2 °C 29.70in /  1005.6hPa NE 1.0mph /  1.6km/h 5.0mph /  8km/h 93% 0.05in /  1.27mm
20:25 44.9 °F /  7.2 °C 43.0 °F /  6.1 °C 29.70in /  1005.6hPa NE 2.0mph /  3.2km/h 3.0mph /  4.8km/h 93% 0.04in /  1.02mm
20:30 44.7 °F /  7.1 °C 42.8 °F /  6 °C 29.70in /  1005.6hPa NE 2.0mph /  3.2km/h 4.0mph /  6.4km/h 93% 0.04in /  1.02mm
20:35 44.7 °F /  7.1 °C 42.8 °F /  6 °C 29.70in /  1005.6hPa ENE 1.0mph /  1.6km/h 5.0mph /  8km/h 93% 0.05in /  1.27mm
20:40 44.6 °F /  7 °C 42.7 °F /  5.9 °C 29.70in /  1005.6hPa NE 3.0mph /  4.8km/h 4.0mph /  6.4km/h 93% 0.04in /  1.02mm
20:45 44.5 °F /  6.9 °C 42.6 °F /  5.9 °C 29.71in /  1006hPa NNE 1.0mph /  1.6km/h 4.0mph /  6.4km/h 93% 0.05in /  1.27mm
20:50 44.4 °F /  6.9 °C 42.5 °F /  5.8 °C 29.71in /  1006hPa NNE 3.0mph /  4.8km/h 6.0mph /  9.7km/h 93% 0.04in /  1.02mm
20:55 44.4 °F /  6.9 °C 42.5 °F /  5.8 °C 29.71in /  1006hPa NE 2.0mph /  3.2km/h 8.0mph /  12.9km/h 93% 0.04in /  1.02mm
21:00 44.3 °F /  6.8 °C 42.4 °F /  5.8 °C 29.71in /  1006hPa NE 3.0mph /  4.8km/h 8.0mph /  12.9km/h 93% 0.04in /  1.02mm
21:05 44.2 °F /  6.8 °C 42.3 °F /  5.7 °C 29.71in /  1006hPa NE 2.0mph /  3.2km/h 4.0mph /  6.4km/h 93% 0.04in /  1.02mm
21:10 44.2 °F /  6.8 °C 42.3 °F /  5.7 °C 29.71in /  1006hPa NE 2.0mph /  3.2km/h 5.0mph /  8km/h 93% 0.04in /  1.02mm
21:15 44.0 °F /  6.7 °C 42.1 °F /  5.6 °C 29.71in /  1006hPa NE 3.0mph /  4.8km/h 5.0mph /  8km/h 93% 0.05in /  1.27mm
21:20 43.8 °F /  6.6 °C 41.9 °F /  5.5 °C 29.71in /  1006hPa NNE 3.0mph /  4.8km/h 5.0mph /  8km/h 93% 0.04in /  1.02mm
21:25 43.6 °F /  6.4 °C 41.7 °F /  5.4 °C 29.71in /  1006hPa NNE 5.0mph /  8km/h 7.0mph /  11.3km/h 93% 0.04in /  1.02mm
21:30 43.4 °F /  6.3 °C 41.5 °F /  5.3 °C 29.71in /  1006hPa NE 4.0mph /  6.4km/h 12.0mph /  19.3km/h 93% 0.05in /  1.27mm
21:35 43.1 °F /  6.2 °C 41.2 °F /  5.1 °C 29.71in /  1006hPa NE 5.0mph /  8km/h 12.0mph /  19.3km/h 93% 0.04in /  1.02mm
21:40 43.0 °F /  6.1 °C 41.1 °F /  5.1 °C 29.71in /  1006hPa NE 4.0mph /  6.4km/h 8.0mph /  12.9km/h 93% 0.04in /  1.02mm
21:45 43.0 °F /  6.1 °C 41.1 °F /  5.1 °C 29.72in /  1006.3hPa ENE 7.0mph /  11.3km/h 7.0mph /  11.3km/h 93% 0.03in /  0.76mm
21:50 42.9 °F /  6.1 °C 41.0 °F /  5 °C 29.72in /  1006.3hPa NE 7.0mph /  11.3km/h 7.0mph /  11.3km/h 93% 0.03in /  0.76mm
21:55 42.9 °F /  6.1 °C 41.0 °F /  5 °C 29.72in /  1006.3hPa NE 7.0mph /  11.3km/h 7.0mph /  11.3km/h 93% 0.03in /  0.76mm
22:00 42.8 °F /  6 °C 40.9 °F /  4.9 °C 29.72in /  1006.3hPa NNE 1.0mph /  1.6km/h 7.0mph /  11.3km/h 93% 0.03in /  0.76mm
22:05 42.8 °F /  6 °C 40.9 °F /  4.9 °C 29.72in /  1006.3hPa NNE 3.0mph /  4.8km/h 6.0mph /  9.7km/h 93% 0.02in /  0.51mm
22:10 42.8 °F /  6 °C 40.9 °F /  4.9 °C 29.72in /  1006.3hPa NE 2.0mph /  3.2km/h 6.0mph /  9.7km/h 93% 0.03in /  0.76mm
22:15 42.8 °F /  6 °C 40.9 °F /  4.9 °C 29.72in /  1006.3hPa NNE 2.0mph /  3.2km/h 5.0mph /  8km/h 93% 0.02in /  0.51mm
22:20 42.7 °F /  5.9 °C 40.8 °F /  4.9 °C 29.72in /  1006.3hPa NNE 1.0mph /  1.6km/h 5.0mph /  8km/h 93% 0.02in /  0.51mm
22:25 42.7 °F /  5.9 °C 40.8 °F /  4.9 °C 29.72in /  1006.3hPa NNE 2.0mph /  3.2km/h 7.0mph /  11.3km/h 93% 0.02in /  0.51mm
22:30 42.6 °F /  5.9 °C 40.7 °F /  4.8 °C 29.72in /  1006.3hPa North 2.0mph /  3.2km/h 5.0mph /  8km/h 93% 0.01in /  0.25mm
22:35 42.5 °F /  5.8 °C 40.6 °F /  4.8 °C 29.72in /  1006.3hPa NE 3.0mph /  4.8km/h 8.0mph /  12.9km/h 93% 0.01in /  0.25mm
22:40 42.5 °F /  5.8 °C 40.6 °F /  4.8 °C 29.72in /  1006.3hPa NNE 3.0mph /  4.8km/h 8.0mph /  12.9km/h 93% 0.01in /  0.25mm
22:45 42.4 °F /  5.8 °C 40.5 °F /  4.7 °C 29.72in /  1006.3hPa NNE 3.0mph /  4.8km/h 7.0mph /  11.3km/h 93% 0.01in /  0.25mm
22:50 42.2 °F /  5.7 °C 40.3 °F /  4.6 °C 29.72in /  1006.3hPa NNE 3.0mph /  4.8km/h 7.0mph /  11.3km/h 93% 0.01in /  0.25mm
22:55 41.9 °F /  5.5 °C 40.0 °F /  4.4 °C 29.72in /  1006.3hPa NNE 3.0mph /  4.8km/h 6.0mph /  9.7km/h 93% 0.01in /  0.25mm
23:00 41.6 °F /  5.3 °C 39.7 °F /  4.3 °C 29.72in /  1006.3hPa NNE 3.0mph /  4.8km/h 6.0mph /  9.7km/h 93% 0.01in /  0.25mm
23:05 41.4 °F /  5.2 °C 39.5 °F /  4.2 °C 29.73in /  1006.7hPa NNE 3.0mph /  4.8km/h 6.0mph /  9.7km/h 93% 0.02in /  0.51mm
23:10 41.2 °F /  5.1 °C 39.3 °F /  4.1 °C 29.73in /  1006.7hPa NNE 3.0mph /  4.8km/h 6.0mph /  9.7km/h 93% 0.01in /  0.25mm
23:15 41.1 °F /  5.1 °C 39.2 °F /  4 °C 29.73in /  1006.7hPa NNE 2.0mph /  3.2km/h 6.0mph /  9.7km/h 93% 0.01in /  0.25mm
23:20 41.0 °F /  5 °C 39.1 °F /  3.9 °C 29.73in /  1006.7hPa NNE 3.0mph /  4.8km/h 7.0mph /  11.3km/h 93% 0.01in /  0.25mm
23:25 40.8 °F /  4.9 °C 38.9 °F /  3.8 °C 29.73in /  1006.7hPa North 3.0mph /  4.8km/h 6.0mph /  9.7km/h 93% 0.01in /  0.25mm
23:30 40.6 °F /  4.8 °C 38.7 °F /  3.7 °C 29.73in /  1006.7hPa NE 4.0mph /  6.4km/h 7.0mph /  11.3km/h 93% 0.02in /  0.51mm
23:35 40.3 °F /  4.6 °C 38.4 °F /  3.6 °C 29.73in /  1006.7hPa North 3.0mph /  4.8km/h 7.0mph /  11.3km/h 93% 0.02in /  0.51mm
23:40 40.1 °F /  4.5 °C 38.2 °F /  3.4 °C 29.73in /  1006.7hPa North 4.0mph /  6.4km/h 7.0mph /  11.3km/h 93% 0.02in /  0.51mm
23:45 39.9 °F /  4.4 °C 38.0 °F /  3.3 °C 29.74in /  1007hPa NNE 4.0mph /  6.4km/h 7.0mph /  11.3km/h 93% 0.02in /  0.51mm
23:50 39.8 °F /  4.3 °C 37.9 °F /  3.3 °C 29.74in /  1007hPa NNE 4.0mph /  6.4km/h 8.0mph /  12.9km/h 93% 0.02in /  0.51mm
23:55 39.7 °F /  4.3 °C 37.8 °F /  3.2 °C 29.74in /  1007hPa North 4.0mph /  6.4km/h 8.0mph /  12.9km/h 93% 0.02in /  0.51mm
Buffalo, New York, USA
Compliments of Weather Underground - 2.5 mb